createdAt,value
2023-01-19T00:00:43.929Z,8.27
2023-01-19T00:01:46.154Z,8.82
2023-01-19T00:02:48.754Z,9.85
2023-01-19T00:03:51.241Z,8.73
2023-01-19T00:04:53.470Z,8.82
2023-01-19T00:05:55.898Z,9.02
2023-01-19T00:06:58.145Z,9.60
2023-01-19T00:08:14.746Z,8.20
2023-01-19T00:09:17.279Z,8.52
2023-01-19T00:10:19.539Z,8.65
2023-01-19T00:11:21.781Z,8.70
2023-01-19T00:12:24.522Z,8.00
2023-01-19T00:13:26.764Z,8.55
2023-01-19T00:14:28.949Z,8.30
2023-01-19T00:15:31.208Z,8.65
2023-01-19T00:16:33.633Z,8.07
2023-01-19T00:17:35.893Z,7.55
2023-01-19T00:18:38.108Z,8.57
2023-01-19T00:19:40.266Z,8.82
2023-01-19T00:20:44.887Z,8.45
2023-01-19T00:21:47.273Z,8.82
2023-01-19T00:22:50.986Z,9.40
2023-01-19T00:23:53.228Z,8.23
2023-01-19T00:24:55.647Z,8.57
2023-01-19T00:25:58.022Z,8.82
2023-01-19T00:27:01.645Z,8.45
2023-01-19T00:28:04.387Z,9.02
2023-01-19T00:29:07.926Z,8.45
2023-01-19T00:30:10.737Z,8.48
2023-01-19T00:31:13.085Z,9.00
2023-01-19T00:32:15.370Z,8.95
2023-01-19T00:33:17.791Z,9.00
2023-01-19T00:34:20.205Z,9.05
2023-01-19T00:35:22.421Z,8.43
2023-01-19T00:36:24.773Z,8.98
2023-01-19T00:37:27.132Z,9.63
2023-01-19T00:38:29.286Z,8.88
2023-01-19T00:39:31.787Z,8.60
2023-01-19T00:40:33.955Z,8.93
2023-01-19T00:41:55.222Z,9.05
2023-01-19T00:42:57.765Z,9.40
2023-01-19T00:44:00.294Z,8.25
2023-01-19T00:45:02.673Z,9.35
2023-01-19T00:46:04.980Z,8.52
2023-01-19T00:47:07.410Z,9.18
2023-01-19T00:48:09.843Z,8.82
2023-01-19T00:49:12.200Z,8.90
2023-01-19T00:50:19.035Z,9.55
2023-01-19T00:51:21.489Z,9.70
2023-01-19T00:52:23.689Z,9.30
2023-01-19T00:53:26.491Z,9.38
2023-01-19T00:54:28.661Z,9.32
2023-01-19T00:55:33.540Z,9.10
2023-01-19T00:56:36.611Z,9.40
2023-01-19T00:57:40.175Z,9.85
2023-01-19T00:58:42.357Z,9.18
2023-01-19T00:59:44.881Z,9.35
2023-01-19T01:00:47.354Z,9.23
2023-01-19T01:01:49.685Z,10.30
2023-01-19T01:02:53.205Z,9.50
2023-01-19T01:03:55.972Z,9.98
2023-01-19T01:04:58.199Z,9.85
2023-01-19T01:06:00.498Z,9.15
2023-01-19T01:07:03.129Z,9.25
2023-01-19T01:08:05.518Z,9.80
2023-01-19T01:09:11.954Z,10.50
2023-01-19T01:10:20.842Z,10.43
2023-01-19T01:11:23.207Z,8.77
2023-01-19T01:12:28.645Z,9.00
2023-01-19T01:13:31.740Z,9.60
2023-01-19T01:14:34.382Z,9.63
2023-01-19T01:15:36.565Z,10.43
2023-01-19T01:16:40.259Z,9.35
2023-01-19T01:17:47.527Z,10.13
2023-01-19T01:18:49.725Z,9.32
2023-01-19T01:19:52.580Z,9.55
2023-01-19T01:21:04.456Z,10.80
2023-01-19T01:22:07.779Z,9.73
2023-01-19T01:23:10.623Z,8.57
2023-01-19T01:24:12.888Z,9.43
2023-01-19T01:25:17.403Z,9.77
2023-01-19T01:26:19.679Z,9.75
2023-01-19T01:27:21.991Z,9.75
2023-01-19T01:28:24.677Z,10.65
2023-01-19T01:29:26.864Z,9.52
2023-01-19T01:30:29.032Z,9.38
2023-01-19T01:31:31.643Z,9.43
2023-01-19T01:32:33.944Z,10.18
2023-01-19T01:33:40.975Z,9.68
2023-01-19T01:34:44.197Z,9.43
2023-01-19T01:35:47.164Z,9.82
2023-01-19T01:36:49.559Z,10.13
2023-01-19T01:37:51.770Z,10.25
2023-01-19T01:38:54.442Z,9.73
2023-01-19T01:39:56.679Z,9.88
2023-01-19T01:40:58.902Z,9.75
2023-01-19T01:42:01.140Z,10.52
2023-01-19T01:43:03.741Z,10.48
2023-01-19T01:44:50.060Z,10.32
2023-01-19T01:45:57.806Z,9.55
2023-01-19T01:47:00.837Z,10.90
2023-01-19T01:48:09.868Z,11.63
2023-01-19T01:49:16.824Z,11.77
2023-01-19T01:50:25.260Z,11.07
2023-01-19T01:51:42.325Z,11.10
2023-01-19T01:53:07.699Z,10.48
2023-01-19T01:54:13.300Z,11.35
2023-01-19T01:55:17.349Z,10.88
2023-01-19T01:56:24.245Z,11.95
2023-01-19T01:57:28.136Z,11.13
2023-01-19T01:58:33.112Z,11.60
2023-01-19T01:59:40.126Z,11.52
2023-01-19T02:01:01.118Z,11.23
2023-01-19T02:02:28.396Z,12.23
2023-01-19T02:03:33.154Z,12.10
2023-01-19T02:04:35.372Z,11.43
2023-01-19T02:05:37.990Z,12.57
2023-01-19T02:06:58.944Z,12.40
2023-01-19T02:09:55.418Z,11.95
2023-01-19T02:11:17.825Z,11.93
2023-01-19T02:12:38.779Z,12.48
2023-01-19T02:14:45.966Z,11.82
2023-01-19T02:15:54.197Z,12.52
2023-01-19T02:16:56.846Z,12.98
2023-01-19T02:17:59.227Z,14.75
2023-01-19T02:19:01.478Z,13.55
2023-01-19T02:20:03.919Z,14.75
2023-01-19T02:21:10.667Z,14.50
2023-01-19T02:22:20.398Z,14.88
2023-01-19T02:23:44.390Z,13.57
2023-01-19T02:24:46.788Z,13.82
2023-01-19T02:25:49.708Z,13.35
2023-01-19T02:26:52.403Z,14.25
2023-01-19T02:27:55.076Z,15.60
2023-01-19T02:29:21.391Z,14.60
2023-01-19T02:30:24.167Z,15.63
2023-01-19T02:31:28.799Z,15.77
2023-01-19T02:32:31.389Z,15.02
2023-01-19T02:33:33.889Z,16.08
2023-01-19T02:34:36.428Z,17.13
2023-01-19T02:35:40.530Z,16.38
2023-01-19T02:37:06.850Z,15.88
2023-01-19T02:38:11.871Z,16.08
2023-01-19T02:39:15.928Z,16.42
2023-01-19T02:40:21.044Z,19.02
2023-01-19T02:41:28.507Z,17.38
2023-01-19T02:42:45.029Z,16.20
2023-01-19T02:43:49.224Z,15.82
2023-01-19T02:44:54.877Z,16.70
2023-01-19T02:45:57.523Z,17.00
2023-01-19T02:47:03.996Z,16.25
2023-01-19T02:48:07.255Z,17.05
2023-01-19T02:49:10.061Z,16.60
2023-01-19T02:50:43.076Z,17.65
2023-01-19T02:51:45.486Z,16.45
2023-01-19T02:52:48.818Z,16.58
2023-01-19T02:54:13.853Z,17.17
2023-01-19T02:55:28.012Z,17.77
2023-01-19T02:56:30.205Z,17.10
2023-01-19T02:57:57.310Z,17.02
2023-01-19T02:59:14.664Z,16.20
2023-01-19T03:00:41.352Z,16.50
2023-01-19T03:02:02.097Z,15.73
2023-01-19T03:03:30.811Z,15.98
2023-01-19T03:04:51.620Z,15.63
2023-01-19T03:06:13.473Z,15.20
2023-01-19T03:07:30.461Z,15.52
2023-01-19T03:08:55.000Z,16.33
2023-01-19T03:10:15.741Z,16.13
2023-01-19T03:11:18.679Z,15.55
2023-01-19T03:12:26.822Z,16.20
2023-01-19T03:13:41.573Z,16.42
2023-01-19T03:14:48.169Z,16.80
2023-01-19T03:15:56.036Z,17.20
2023-01-19T03:17:01.447Z,17.15
2023-01-19T03:18:08.240Z,16.67
2023-01-19T03:19:20.393Z,16.00
2023-01-19T03:20:25.466Z,16.67
2023-01-19T03:21:32.592Z,16.20
2023-01-19T03:22:35.124Z,16.42
2023-01-19T03:23:42.176Z,15.95
2023-01-19T03:24:47.821Z,16.50
2023-01-19T03:25:53.008Z,16.15
2023-01-19T03:27:04.400Z,16.75
2023-01-19T03:28:06.785Z,16.15
2023-01-19T03:29:11.767Z,15.40
2023-01-19T03:30:23.046Z,15.57
2023-01-19T03:31:29.053Z,14.75
2023-01-19T03:32:36.885Z,16.40
2023-01-19T03:33:45.026Z,15.52
2023-01-19T03:34:50.237Z,15.85
2023-01-19T03:36:03.733Z,15.35
2023-01-19T03:37:10.091Z,16.05
2023-01-19T03:38:17.226Z,14.70
2023-01-19T03:39:23.154Z,15.82
2023-01-19T03:40:32.471Z,14.82
2023-01-19T03:41:37.664Z,13.88
2023-01-19T03:42:41.273Z,15.10
2023-01-19T03:43:45.132Z,14.98
2023-01-19T03:44:50.645Z,14.00
2023-01-19T03:45:55.328Z,14.43
2023-01-19T03:46:59.792Z,14.40
2023-01-19T03:48:02.381Z,14.85
2023-01-19T03:49:05.012Z,14.75
2023-01-19T03:50:14.286Z,14.50
2023-01-19T03:51:17.977Z,13.95
2023-01-19T03:52:32.548Z,13.35
2023-01-19T03:53:35.303Z,13.82
2023-01-19T03:54:37.712Z,13.98
2023-01-19T03:55:42.685Z,14.27
2023-01-19T03:56:44.975Z,13.77
2023-01-19T03:57:47.156Z,14.45
2023-01-19T03:58:50.009Z,14.13
2023-01-19T03:59:53.400Z,14.55
2023-01-19T04:00:55.885Z,13.63
2023-01-19T04:01:58.167Z,14.52
2023-01-19T04:03:00.946Z,13.70
2023-01-19T04:04:03.424Z,15.40
2023-01-19T04:05:06.000Z,13.75
2023-01-19T04:06:09.989Z,14.00
2023-01-19T04:07:12.231Z,13.68
2023-01-19T04:08:14.598Z,14.00
2023-01-19T04:09:18.593Z,14.90
2023-01-19T04:10:22.391Z,13.40
2023-01-19T04:11:24.860Z,13.77
2023-01-19T04:12:27.266Z,13.80
2023-01-19T04:13:30.489Z,14.65
2023-01-19T04:14:33.039Z,12.85
2023-01-19T04:15:35.227Z,12.30
2023-01-19T04:16:37.654Z,13.40
2023-01-19T04:17:40.067Z,13.45
2023-01-19T04:18:42.445Z,13.05
2023-01-19T04:19:45.247Z,13.25
2023-01-19T04:20:47.426Z,13.48
2023-01-19T04:21:50.917Z,13.48
2023-01-19T04:22:53.094Z,13.38
2023-01-19T04:23:55.263Z,12.80
2023-01-19T04:24:57.600Z,13.50
2023-01-19T04:26:05.180Z,13.98
2023-01-19T04:27:07.565Z,14.10
2023-01-19T04:28:09.767Z,13.32
2023-01-19T04:29:14.049Z,13.35
2023-01-19T04:30:17.007Z,13.07
2023-01-19T04:31:19.539Z,13.50
2023-01-19T04:32:21.934Z,13.30
2023-01-19T04:33:24.602Z,13.77
2023-01-19T04:34:26.756Z,13.30
2023-01-19T04:35:29.339Z,13.50
2023-01-19T04:36:31.685Z,14.05
2023-01-19T04:37:33.936Z,13.13
2023-01-19T04:38:36.299Z,12.60
2023-01-19T04:39:38.464Z,13.98
2023-01-19T04:40:40.889Z,13.63
2023-01-19T04:41:43.630Z,13.15
2023-01-19T04:42:46.471Z,13.68
2023-01-19T04:43:49.263Z,13.07
2023-01-19T04:44:52.563Z,13.25
2023-01-19T04:45:54.935Z,12.82
2023-01-19T04:46:57.189Z,13.13
2023-01-19T04:47:59.603Z,12.27
2023-01-19T04:49:02.031Z,13.32
2023-01-19T04:50:05.887Z,12.95
2023-01-19T04:51:08.820Z,12.52
2023-01-19T04:52:11.322Z,13.93
2023-01-19T04:53:14.540Z,12.70
2023-01-19T04:54:16.742Z,12.45
2023-01-19T04:55:19.795Z,13.50
2023-01-19T04:56:21.987Z,13.68
2023-01-19T04:57:24.416Z,14.45
2023-01-19T04:58:26.685Z,13.02
2023-01-19T04:59:28.978Z,13.13
2023-01-19T05:00:31.588Z,12.55
2023-01-19T05:01:33.886Z,12.13
2023-01-19T05:02:36.602Z,12.32
2023-01-19T05:03:40.225Z,12.93
2023-01-19T05:04:42.437Z,13.57
2023-01-19T05:05:44.827Z,11.43
2023-01-19T05:06:46.965Z,13.13
2023-01-19T05:07:49.535Z,12.73
2023-01-19T05:08:51.711Z,12.93
2023-01-19T05:09:53.984Z,12.52
2023-01-19T05:10:57.607Z,12.63
2023-01-19T05:11:59.760Z,11.65
2023-01-19T05:13:02.853Z,12.52
2023-01-19T05:14:05.293Z,11.48
2023-01-19T05:15:09.558Z,10.65
2023-01-19T05:16:14.006Z,12.18
2023-01-19T05:17:16.411Z,11.25
2023-01-19T05:18:18.871Z,10.98
2023-01-19T05:19:21.224Z,12.10
2023-01-19T05:20:23.933Z,10.90
2023-01-19T05:21:26.622Z,11.82
2023-01-19T05:22:28.804Z,11.68
2023-01-19T05:23:32.606Z,11.40
2023-01-19T05:24:35.451Z,10.68
2023-01-19T05:25:38.720Z,11.07
2023-01-19T05:26:41.632Z,12.55
2023-01-19T05:27:44.732Z,12.63
2023-01-19T05:28:46.962Z,10.90
2023-01-19T05:29:49.396Z,12.40
2023-01-19T05:30:51.883Z,13.23
2023-01-19T05:31:54.266Z,13.52
2023-01-19T05:32:56.527Z,11.82
2023-01-19T05:33:58.673Z,10.93
2023-01-19T05:35:01.100Z,11.27
2023-01-19T05:36:04.365Z,10.70
2023-01-19T05:37:06.778Z,11.63
2023-01-19T05:38:09.409Z,11.02
2023-01-19T05:39:11.647Z,10.68
2023-01-19T05:40:14.051Z,11.00
2023-01-19T05:41:17.654Z,11.68
2023-01-19T05:42:19.901Z,10.43
2023-01-19T05:43:22.270Z,10.55
2023-01-19T05:44:24.439Z,11.27
2023-01-19T05:45:28.344Z,11.60
2023-01-19T05:46:33.609Z,10.35
2023-01-19T05:47:35.903Z,11.65
2023-01-19T05:48:38.642Z,10.88
2023-01-19T05:49:40.860Z,11.43
2023-01-19T05:50:43.325Z,11.65
2023-01-19T05:51:45.730Z,11.88
2023-01-19T05:52:47.984Z,10.93
2023-01-19T05:53:50.527Z,11.27
2023-01-19T05:54:54.599Z,11.50
2023-01-19T05:56:05.755Z,11.27
2023-01-19T05:57:09.260Z,10.57
2023-01-19T05:58:11.616Z,11.75
2023-01-19T05:59:15.269Z,10.27
2023-01-19T06:00:17.747Z,10.25
2023-01-19T06:01:19.926Z,10.25
2023-01-19T06:02:28.506Z,9.80
2023-01-19T06:03:31.802Z,9.60
2023-01-19T06:04:34.163Z,10.10
2023-01-19T06:05:38.425Z,9.95
2023-01-19T06:06:41.030Z,10.30
2023-01-19T06:07:43.254Z,10.80
2023-01-19T06:08:45.901Z,11.23
2023-01-19T06:09:48.092Z,9.45
2023-01-19T06:10:50.488Z,9.48
2023-01-19T06:11:54.194Z,9.63
2023-01-19T06:12:56.541Z,8.63
2023-01-19T06:13:58.829Z,9.55
2023-01-19T06:15:01.031Z,9.43
2023-01-19T06:16:03.646Z,8.60
2023-01-19T06:17:06.703Z,10.32
2023-01-19T06:18:09.498Z,9.13
2023-01-19T06:19:11.833Z,10.43
2023-01-19T06:20:14.196Z,9.82
2023-01-19T06:21:16.611Z,9.20
2023-01-19T06:22:18.743Z,8.48
2023-01-19T06:23:21.030Z,8.57
2023-01-19T06:24:24.300Z,9.02
2023-01-19T06:25:26.492Z,9.02
2023-01-19T06:26:29.141Z,8.65
2023-01-19T06:27:31.427Z,8.57
2023-01-19T06:28:33.610Z,8.20
2023-01-19T06:29:36.196Z,8.77
2023-01-19T06:30:38.477Z,8.73
2023-01-19T06:31:41.778Z,9.70
2023-01-19T06:32:44.266Z,9.43
2023-01-19T06:33:46.707Z,9.30
2023-01-19T06:34:49.262Z,9.98
2023-01-19T06:35:52.473Z,9.90
2023-01-19T06:36:58.290Z,8.95
2023-01-19T06:38:00.444Z,9.20
2023-01-19T06:39:06.021Z,8.90
2023-01-19T06:40:08.888Z,8.18
2023-01-19T06:41:11.060Z,8.10
2023-01-19T06:42:13.281Z,9.32
2023-01-19T06:43:15.500Z,9.65
2023-01-19T06:44:17.901Z,8.00
2023-01-19T06:45:20.120Z,7.82
2023-01-19T06:46:22.308Z,8.25
2023-01-19T06:47:24.533Z,8.45
2023-01-19T06:48:27.247Z,7.72
2023-01-19T06:49:29.607Z,8.13
2023-01-19T06:50:32.011Z,8.35
2023-01-19T06:51:34.438Z,8.10
2023-01-19T06:52:42.212Z,8.15
2023-01-19T06:53:44.730Z,7.85
2023-01-19T06:54:47.184Z,8.73
2023-01-19T06:55:49.373Z,7.78
2023-01-19T06:56:52.648Z,9.35
2023-01-19T06:58:01.323Z,8.88
2023-01-19T06:59:03.592Z,8.60
2023-01-19T07:00:08.419Z,9.00
2023-01-19T07:01:10.840Z,8.15
2023-01-19T07:02:26.571Z,8.20
2023-01-19T07:03:30.554Z,8.48
2023-01-19T07:04:34.114Z,8.05
2023-01-19T07:05:36.495Z,8.52
2023-01-19T07:06:38.687Z,8.07
2023-01-19T07:07:42.507Z,8.90
2023-01-19T07:08:44.754Z,8.40
2023-01-19T07:09:47.319Z,7.47
2023-01-19T07:11:26.140Z,8.07
2023-01-19T07:12:12.656Z,7.95
2023-01-19T07:13:15.835Z,7.63
2023-01-19T07:14:17.976Z,8.27
2023-01-19T07:15:21.739Z,7.88
2023-01-19T07:16:24.057Z,8.55
2023-01-19T07:17:26.482Z,8.00
2023-01-19T07:18:28.871Z,8.23
2023-01-19T07:19:31.224Z,9.10
2023-01-19T07:20:37.614Z,8.55
2023-01-19T07:21:39.961Z,7.93
2023-01-19T07:22:46.626Z,8.73
2023-01-19T07:23:50.165Z,9.38
2023-01-19T07:24:52.327Z,9.15
2023-01-19T07:25:54.661Z,8.43
2023-01-19T07:26:56.967Z,8.88
2023-01-19T07:28:00.104Z,9.68
2023-01-19T07:29:02.560Z,8.70
2023-01-19T07:30:11.480Z,9.02
2023-01-19T07:31:14.550Z,8.65
2023-01-19T07:32:16.834Z,8.43
2023-01-19T07:33:18.994Z,9.32
2023-01-19T07:34:21.494Z,9.23
2023-01-19T07:35:27.035Z,8.93
2023-01-19T07:36:29.423Z,10.68
2023-01-19T07:37:31.646Z,8.05
2023-01-19T07:38:33.857Z,8.52
2023-01-19T07:39:36.707Z,8.68
2023-01-19T07:40:39.148Z,8.85
2023-01-19T07:41:41.344Z,9.48
2023-01-19T07:42:51.011Z,8.77
2023-01-19T07:43:53.243Z,8.80
2023-01-19T07:44:55.424Z,8.30
2023-01-19T07:45:59.424Z,8.75
2023-01-19T07:47:01.597Z,8.88
2023-01-19T07:48:03.899Z,8.80
2023-01-19T07:49:06.268Z,9.20
2023-01-19T07:50:09.198Z,9.70
2023-01-19T07:51:19.029Z,8.35
2023-01-19T07:52:22.924Z,9.52
2023-01-19T07:53:25.092Z,8.63
2023-01-19T07:54:27.507Z,8.70
2023-01-19T07:55:29.818Z,8.32
2023-01-19T07:56:33.893Z,9.13
2023-01-19T07:57:36.625Z,8.63
2023-01-19T07:58:39.271Z,8.50
2023-01-19T07:59:41.628Z,8.63
2023-01-19T08:00:43.843Z,8.70
2023-01-19T08:01:46.505Z,9.23
2023-01-19T08:02:51.847Z,8.93
2023-01-19T08:03:54.075Z,7.80
2023-01-19T08:04:56.625Z,8.38
2023-01-19T08:05:59.900Z,9.35
2023-01-19T08:07:02.492Z,8.25
2023-01-19T08:08:05.573Z,8.10
2023-01-19T08:09:08.474Z,8.23
2023-01-19T08:10:15.636Z,8.43
2023-01-19T08:11:17.826Z,8.13
2023-01-19T08:12:20.075Z,8.10
2023-01-19T08:13:22.476Z,8.95
2023-01-19T08:14:24.692Z,10.90
2023-01-19T08:15:27.225Z,10.20
2023-01-19T08:16:29.476Z,11.25
2023-01-19T08:17:31.848Z,9.90
2023-01-19T08:18:34.102Z,9.70
2023-01-19T08:19:36.262Z,9.55
2023-01-19T08:20:38.536Z,9.48
2023-01-19T08:21:41.131Z,10.45
2023-01-19T08:22:43.534Z,8.95
2023-01-19T08:23:52.793Z,11.73
2023-01-19T08:24:55.031Z,10.45
2023-01-19T08:25:57.248Z,8.85
2023-01-19T08:27:01.188Z,8.20
2023-01-19T08:28:05.441Z,9.05
2023-01-19T08:29:07.620Z,8.68
2023-01-19T08:30:10.595Z,8.48
2023-01-19T08:31:20.356Z,9.25
2023-01-19T08:32:25.119Z,8.45
2023-01-19T08:33:27.322Z,8.27
2023-01-19T08:34:32.427Z,6.97
2023-01-19T08:35:37.479Z,7.38
2023-01-19T08:36:39.617Z,6.72
2023-01-19T08:37:41.812Z,7.35
2023-01-19T08:38:47.673Z,7.13
2023-01-19T08:39:50.080Z,7.32
2023-01-19T08:40:52.236Z,6.80
2023-01-19T08:41:54.538Z,6.95
2023-01-19T08:43:03.619Z,7.55
2023-01-19T08:44:06.011Z,7.53
2023-01-19T08:45:09.330Z,7.07
2023-01-19T08:46:12.052Z,6.97
2023-01-19T08:47:14.335Z,7.85
2023-01-19T08:48:19.320Z,7.63
2023-01-19T08:49:21.494Z,6.95
2023-01-19T08:50:23.695Z,7.95
2023-01-19T08:51:26.096Z,7.03
2023-01-19T08:52:29.352Z,7.38
2023-01-19T08:53:31.804Z,7.88
2023-01-19T08:54:33.973Z,7.82
2023-01-19T08:55:36.531Z,7.70
2023-01-19T08:56:38.856Z,8.02
2023-01-19T08:57:41.040Z,7.20
2023-01-19T08:58:45.710Z,6.15
2023-01-19T08:59:47.995Z,6.20
2023-01-19T09:00:52.526Z,6.45
2023-01-19T09:01:55.118Z,6.60
2023-01-19T09:02:57.885Z,6.55
2023-01-19T09:04:00.228Z,6.00
2023-01-19T09:05:02.463Z,7.05
2023-01-19T09:06:08.554Z,7.25
2023-01-19T09:07:11.169Z,7.63
2023-01-19T09:08:14.660Z,5.93
2023-01-19T09:09:16.808Z,6.45
2023-01-19T09:10:19.215Z,6.18
2023-01-19T09:11:21.401Z,6.18
2023-01-19T09:12:23.607Z,5.60
2023-01-19T09:13:26.377Z,5.93
2023-01-19T09:14:28.542Z,6.28
2023-01-19T09:15:33.895Z,6.15
2023-01-19T09:16:36.129Z,6.45
2023-01-19T09:17:38.299Z,6.45
2023-01-19T09:18:40.934Z,6.68
2023-01-19T09:19:43.097Z,6.82
2023-01-19T09:20:47.443Z,6.47
2023-01-19T09:21:49.652Z,5.68
2023-01-19T09:22:51.963Z,6.63
2023-01-19T09:23:55.199Z,6.32
2023-01-19T09:24:57.347Z,6.85
2023-01-19T09:26:02.037Z,7.80
2023-01-19T09:27:04.592Z,7.43
2023-01-19T09:28:09.218Z,8.80
2023-01-19T09:29:11.744Z,7.72
2023-01-19T09:30:14.093Z,6.47
2023-01-19T09:31:16.346Z,6.35
2023-01-19T09:32:20.564Z,6.68
2023-01-19T09:33:23.367Z,8.13
2023-01-19T09:34:26.176Z,8.75
2023-01-19T09:35:28.344Z,8.68
2023-01-19T09:36:30.966Z,7.18
2023-01-19T09:37:33.135Z,7.00
2023-01-19T09:38:35.320Z,6.10
2023-01-19T09:39:37.945Z,5.68
2023-01-19T09:40:55.143Z,6.55
2023-01-19T09:42:14.613Z,6.35
2023-01-19T09:43:35.320Z,6.80
2023-01-19T09:44:39.511Z,5.90
2023-01-19T09:45:50.401Z,7.15
2023-01-19T09:46:52.634Z,6.63
2023-01-19T09:47:57.170Z,6.82
2023-01-19T09:49:05.308Z,7.38
2023-01-19T09:50:20.893Z,6.65
2023-01-19T09:51:28.434Z,6.63
2023-01-19T09:52:35.951Z,7.38
2023-01-19T09:53:50.521Z,6.30
2023-01-19T09:54:58.251Z,6.18
2023-01-19T09:56:00.469Z,6.60
2023-01-19T09:57:02.963Z,6.25
2023-01-19T09:58:12.326Z,7.40
2023-01-19T09:59:36.804Z,6.10
2023-01-19T10:00:39.786Z,5.97
2023-01-19T10:02:07.115Z,6.45
2023-01-19T10:03:17.075Z,7.00
2023-01-19T10:04:30.179Z,7.10
2023-01-19T10:05:41.814Z,6.55
2023-01-19T10:06:44.401Z,7.03
2023-01-19T10:07:55.898Z,6.72
2023-01-19T10:09:19.184Z,7.90
2023-01-19T10:10:28.668Z,6.85
2023-01-19T10:11:51.288Z,6.47
2023-01-19T10:13:15.230Z,7.70
2023-01-19T10:14:28.121Z,6.50
2023-01-19T10:15:38.172Z,6.72
2023-01-19T10:16:53.144Z,6.75
2023-01-19T10:18:34.967Z,7.45
2023-01-19T10:19:46.448Z,7.85
2023-01-19T10:20:56.536Z,6.13
2023-01-19T10:22:04.208Z,6.97
2023-01-19T10:23:21.952Z,6.55
2023-01-19T10:24:29.097Z,5.97
2023-01-19T10:25:32.045Z,6.38
2023-01-19T10:26:38.932Z,6.03
2023-01-19T10:27:42.972Z,7.10
2023-01-19T10:28:48.215Z,6.22
2023-01-19T10:29:50.774Z,6.53
2023-01-19T10:30:55.048Z,6.43
2023-01-19T10:32:21.187Z,5.88
2023-01-19T10:33:23.660Z,6.25
2023-01-19T10:34:25.849Z,7.30
2023-01-19T10:35:29.915Z,6.90
2023-01-19T10:36:38.186Z,6.97
2023-01-19T10:37:44.932Z,6.68
2023-01-19T10:38:48.027Z,5.93
2023-01-19T10:39:56.171Z,7.03
2023-01-19T10:41:05.301Z,6.50
2023-01-19T10:42:12.955Z,5.82
2023-01-19T10:43:36.074Z,6.82
2023-01-19T10:44:38.563Z,6.70
2023-01-19T10:45:40.795Z,7.03
2023-01-19T10:46:47.222Z,8.00
2023-01-19T10:47:50.385Z,6.68
2023-01-19T10:48:54.162Z,6.13
2023-01-19T10:49:56.545Z,6.22
2023-01-19T10:51:06.240Z,6.05
2023-01-19T10:52:31.821Z,4.57
2023-01-19T10:53:34.069Z,5.90
2023-01-19T10:54:37.588Z,5.68
2023-01-19T10:55:40.305Z,6.75
2023-01-19T10:56:43.450Z,5.60
2023-01-19T10:57:49.498Z,6.53
2023-01-19T10:58:51.702Z,6.07
2023-01-19T10:59:53.916Z,5.80
2023-01-19T11:01:14.119Z,6.13
2023-01-19T11:02:26.730Z,6.43
2023-01-19T11:03:31.416Z,6.53
2023-01-19T11:04:33.606Z,6.05
2023-01-19T11:05:35.980Z,7.05
2023-01-19T11:06:38.105Z,5.68
2023-01-19T11:07:40.275Z,6.88
2023-01-19T11:08:44.184Z,6.35
2023-01-19T11:09:48.042Z,9.63
2023-01-19T11:10:58.230Z,6.20
2023-01-19T11:12:00.587Z,6.28
2023-01-19T11:13:12.948Z,6.43
2023-01-19T11:14:22.088Z,6.65
2023-01-19T11:15:27.512Z,6.32
2023-01-19T11:16:32.268Z,6.72
2023-01-19T11:17:34.631Z,5.85
2023-01-19T11:18:39.292Z,6.45
2023-01-19T11:19:41.603Z,6.20
2023-01-19T11:20:53.368Z,6.75
2023-01-19T11:22:11.364Z,6.75
2023-01-19T11:23:24.678Z,6.22
2023-01-19T11:24:26.989Z,6.53
2023-01-19T11:25:32.763Z,6.28
2023-01-19T11:26:41.188Z,6.15
2023-01-19T11:27:51.626Z,5.68
2023-01-19T11:28:56.703Z,6.78
2023-01-19T11:30:10.383Z,7.53
2023-01-19T11:31:15.387Z,6.57
2023-01-19T11:32:22.806Z,6.88
2023-01-19T11:33:37.595Z,6.47
2023-01-19T11:34:39.876Z,6.15
2023-01-19T11:35:42.057Z,6.60
2023-01-19T11:36:59.485Z,6.93
2023-01-19T11:38:16.816Z,5.68
2023-01-19T11:39:28.326Z,6.40
2023-01-19T11:40:31.388Z,6.85
2023-01-19T11:41:37.363Z,6.80
2023-01-19T11:42:39.581Z,7.22
2023-01-19T11:43:48.964Z,7.32
2023-01-19T11:44:57.897Z,6.28
2023-01-19T11:46:00.333Z,6.32
2023-01-19T11:47:10.372Z,6.00
2023-01-19T11:48:23.812Z,6.65
2023-01-19T11:49:32.000Z,6.30
2023-01-19T11:50:42.632Z,6.25
2023-01-19T11:51:56.446Z,6.47
2023-01-19T11:53:11.375Z,6.55
2023-01-19T11:54:29.786Z,6.90
2023-01-19T11:55:49.766Z,6.47
2023-01-19T11:56:53.918Z,6.50
2023-01-19T11:57:56.271Z,6.28
2023-01-19T11:58:58.876Z,6.38
2023-01-19T12:00:05.358Z,7.05
2023-01-19T12:01:27.884Z,6.40
2023-01-19T12:02:46.897Z,6.07
2023-01-19T12:03:54.882Z,7.65
2023-01-19T12:05:05.505Z,6.57
2023-01-19T12:06:12.236Z,6.93
2023-01-19T12:07:30.160Z,6.43
2023-01-19T12:08:39.399Z,5.78
2023-01-19T12:09:53.959Z,6.53
2023-01-19T12:10:58.713Z,6.70
2023-01-19T12:12:08.027Z,6.18
2023-01-19T12:13:23.194Z,5.88
2023-01-19T12:14:40.171Z,6.45
2023-01-19T12:15:44.554Z,6.03
2023-01-19T12:16:47.079Z,6.50
2023-01-19T12:17:51.388Z,5.70
2023-01-19T12:18:59.378Z,7.00
2023-01-19T12:20:31.426Z,6.55
2023-01-19T12:21:33.609Z,6.40
2023-01-19T12:22:49.363Z,6.05
2023-01-19T12:24:12.502Z,6.05
2023-01-19T12:25:24.764Z,6.18
2023-01-19T12:26:35.823Z,6.78
2023-01-19T12:27:40.444Z,6.82
2023-01-19T12:28:46.594Z,6.60
2023-01-19T12:29:49.053Z,6.57
2023-01-19T12:30:52.207Z,6.60
2023-01-19T12:32:13.210Z,6.30
2023-01-19T12:33:30.100Z,5.68
2023-01-19T12:34:41.261Z,6.40
2023-01-19T12:36:04.434Z,6.70
2023-01-19T12:37:30.971Z,5.93
2023-01-19T12:39:03.977Z,5.85
2023-01-19T12:40:27.878Z,5.90
2023-01-19T12:41:36.953Z,6.97
2023-01-19T12:42:46.751Z,6.45
2023-01-19T12:44:12.200Z,6.43
2023-01-19T12:45:23.229Z,6.53
2023-01-19T12:46:30.996Z,6.85
2023-01-19T12:47:33.851Z,6.55
2023-01-19T12:48:36.365Z,7.20
2023-01-19T12:49:38.473Z,6.97
2023-01-19T12:50:46.499Z,6.35
2023-01-19T12:51:50.905Z,6.50
2023-01-19T12:52:59.349Z,6.18
2023-01-19T12:54:05.630Z,5.82
2023-01-19T12:55:14.678Z,6.20
2023-01-19T12:56:17.794Z,6.15
2023-01-19T12:57:29.032Z,6.60
2023-01-19T12:58:31.927Z,6.72
2023-01-19T12:59:37.498Z,7.22
2023-01-19T13:00:42.993Z,8.00
2023-01-19T13:02:20.310Z,6.88
2023-01-19T13:03:44.723Z,6.30
2023-01-19T13:05:07.040Z,7.13
2023-01-19T13:06:09.453Z,6.60
2023-01-19T13:07:13.669Z,7.00
2023-01-19T13:08:18.338Z,6.97
2023-01-19T13:09:30.848Z,6.88
2023-01-19T13:11:09.804Z,5.85
2023-01-19T13:12:14.755Z,6.57
2023-01-19T13:13:21.176Z,6.28
2023-01-19T13:14:37.875Z,7.53
2023-01-19T13:15:40.130Z,5.85
2023-01-19T13:16:47.905Z,6.85
2023-01-19T13:17:52.795Z,6.78
2023-01-19T13:18:56.774Z,6.38
2023-01-19T13:20:24.603Z,6.57
2023-01-19T13:21:29.878Z,6.05
2023-01-19T13:22:49.786Z,6.28
2023-01-19T13:23:56.281Z,6.38
2023-01-19T13:25:26.717Z,5.93
2023-01-19T13:26:42.299Z,6.28
2023-01-19T13:27:44.731Z,5.85
2023-01-19T13:28:52.040Z,6.53
2023-01-19T13:29:54.233Z,6.13
2023-01-19T13:31:00.346Z,6.40
2023-01-19T13:32:12.713Z,7.03
2023-01-19T13:33:22.605Z,6.68
2023-01-19T13:34:27.802Z,4.88
2023-01-19T13:35:30.036Z,6.38
2023-01-19T13:36:36.317Z,6.25
2023-01-19T13:37:44.691Z,6.32
2023-01-19T13:38:49.724Z,6.28
2023-01-19T13:39:54.822Z,6.07
2023-01-19T13:41:01.640Z,6.15
2023-01-19T13:42:09.235Z,6.28
2023-01-19T13:43:34.712Z,6.43
2023-01-19T13:44:51.476Z,6.28
2023-01-19T13:45:54.221Z,6.15
2023-01-19T13:46:59.677Z,6.50
2023-01-19T13:48:06.566Z,7.63
2023-01-19T13:49:35.444Z,7.47
2023-01-19T13:50:40.700Z,6.93
2023-01-19T13:51:42.870Z,7.00
2023-01-19T13:52:45.845Z,6.53
2023-01-19T13:53:55.970Z,7.15
2023-01-19T13:55:03.073Z,6.13
2023-01-19T13:56:10.013Z,6.35
2023-01-19T13:57:42.703Z,6.45
2023-01-19T13:59:01.192Z,6.32
2023-01-19T14:00:07.202Z,6.13
2023-01-19T14:01:23.408Z,6.18
2023-01-19T14:02:26.224Z,6.70
2023-01-19T14:03:28.629Z,5.97
2023-01-19T14:04:33.754Z,6.60
2023-01-19T14:05:38.635Z,6.63
2023-01-19T14:06:46.269Z,7.10
2023-01-19T14:07:59.074Z,6.72
2023-01-19T14:09:18.564Z,6.65
2023-01-19T14:10:20.941Z,6.75
2023-01-19T14:11:23.094Z,6.68
2023-01-19T14:12:25.744Z,6.53
2023-01-19T14:13:40.227Z,6.55
2023-01-19T14:14:44.345Z,7.13
2023-01-19T14:15:48.933Z,6.68
2023-01-19T14:16:51.411Z,7.18
2023-01-19T14:18:18.120Z,7.45
2023-01-19T14:19:20.297Z,6.25
2023-01-19T14:20:30.492Z,7.10
2023-01-19T14:21:41.182Z,7.10
2023-01-19T14:22:45.554Z,7.00
2023-01-19T14:23:54.420Z,7.95
2023-01-19T14:25:35.879Z,8.25
2023-01-19T14:27:40.464Z,7.35
2023-01-19T14:28:46.327Z,7.22
2023-01-19T14:29:50.711Z,6.57
2023-01-19T14:31:17.703Z,6.40
2023-01-19T14:32:22.774Z,7.47
2023-01-19T14:33:46.066Z,7.60
2023-01-19T14:34:51.142Z,6.75
2023-01-19T14:35:53.356Z,6.45